Time;durP1;ratioP1;P1;durP2;ratioP2;P2;SDS_P1;SDS_P2;PMS_P1;PMS_P2;Temp;Humidity;BMP_temperature;BMP_pressure;BME280_temperature;BME280_humidity;BME280_pressure;Samples;Min_cycle;Max_cycle;Signal;HPM_P1;HPM_P2
2023/09/20 00:00:07;;;;;;;6.25;2.40;;;;;;;18.95;62.38;94122.06;4951761;28;20117;-81
2023/09/20 00:02:33;;;;;;;8.45;2.45;;;;;;;18.93;62.69;94119.72;4969876;28;20046;-81
2023/09/20 00:05:00;;;;;;;2.80;1.90;;;;;;;18.78;62.84;94113.31;4991116;28;20049;-82
2023/09/20 00:07:26;;;;;;;1.88;1.70;;;;;;;18.77;62.37;94095.56;4990066;28;20912;-81
2023/09/20 00:09:52;;;;;;;5.13;1.73;;;;;;;18.74;62.28;94101.69;4989208;28;20392;-80
2023/09/20 00:12:18;;;;;;;4.68;2.85;;;;;;;18.79;62.23;94114.09;4989955;28;20453;-79
2023/09/20 00:14:43;;;;;;;4.63;3.10;;;;;;;18.69;62.34;94104.63;4988206;28;20041;-81
2023/09/20 00:17:08;;;;;;;2.90;2.20;;;;;;;18.64;62.04;94096.84;4990595;28;20686;-80
2023/09/20 00:19:38;;;;;;;7.20;2.65;;;;;;;18.78;62.17;94117.91;4993068;28;20131;-79
2023/09/20 00:22:04;;;;;;;2.97;2.25;;;;;;;18.71;62.37;94118.56;4990290;28;20062;-81
2023/09/20 00:24:30;;;;;;;4.10;2.25;;;;;;;18.67;62.18;94109.63;4989690;28;20381;-81
2023/09/20 00:26:57;;;;;;;2.10;1.90;;;;;;;18.56;62.22;94095.16;4988166;28;20026;-80
2023/09/20 00:29:24;;;;;;;5.70;2.13;;;;;;;18.64;62.67;94123.78;4991207;28;20022;-81
2023/09/20 00:31:50;;;;;;;3.92;2.85;;;;;;;18.51;62.63;94103.53;4987532;28;20395;-82
2023/09/20 00:34:17;;;;;;;3.40;2.40;;;;;;;18.68;62.15;94135.41;4972790;28;20049;-79
2023/09/20 00:36:44;;;;;;;2.60;2.20;;;;;;;18.45;62.31;94113.03;4990328;28;20089;-81
2023/09/20 00:39:10;;;;;;;4.22;2.53;;;;;;;18.54;62.76;94121.66;4988382;28;20069;-80
2023/09/20 00:41:36;;;;;;;3.90;2.33;;;;;;;18.46;62.63;94110.00;4987989;28;20022;-80
2023/09/20 00:44:01;;;;;;;5.65;2.40;;;;;;;18.39;62.55;94100.97;4986957;28;20033;-79
2023/09/20 00:46:26;;;;;;;4.78;3.83;;;;;;;18.36;62.89;94094.41;4986173;28;20190;-81
2023/09/20 00:48:54;;;;;;;3.15;2.35;;;;;;;18.55;62.95;94123.22;4988497;28;20395;-81
2023/09/20 00:51:21;;;;;;;3.75;2.80;;;;;;;18.49;63.02;94108.47;4986122;28;20041;-81
2023/09/20 00:53:48;;;;;;;3.40;2.95;;;;;;;18.42;63.54;94114.53;4992617;28;20037;-80
2023/09/20 00:56:14;;;;;;;4.95;2.97;;;;;;;18.51;63.15;94119.69;4989266;28;20033;-81
2023/09/20 00:58:43;;;;;;;8.63;3.42;;;;;;;18.53;62.78;94108.56;4988197;28;20088;-81
2023/09/20 01:01:10;;;;;;;5.75;2.92;;;;;;;18.45;62.37;94110.34;4988738;28;20755;-76
2023/09/20 01:03:35;;;;;;;3.38;2.70;;;;;;;18.49;61.99;94113.88;4991477;28;20136;-80
2023/09/20 01:06:09;;;;;;;4.38;2.78;;;;;;;18.38;62.05;94094.06;4990282;28;20088;-80
2023/09/20 01:08:34;;;;;;;5.47;2.83;;;;;;;18.48;61.76;94123.06;4990276;28;20509;-80
2023/09/20 01:11:01;;;;;;;3.10;2.70;;;;;;;18.45;61.39;94118.41;4990372;28;20133;-80
2023/09/20 01:13:26;;;;;;;3.85;2.58;;;;;;;18.33;61.59;94103.16;4991981;28;20061;-80
2023/09/20 01:15:53;;;;;;;4.88;2.90;;;;;;;18.43;61.86;94123.38;4993936;28;20129;-81
2023/09/20 01:18:18;;;;;;;4.22;2.47;;;;;;;18.17;61.49;94072.88;4986705;28;20087;-81
2023/09/20 01:20:44;;;;;;;4.57;2.83;;;;;;;18.42;61.39;94111.06;4982343;28;20033;-81
2023/09/20 01:23:09;;;;;;;5.15;2.33;;;;;;;18.44;61.32;94103.38;4988349;28;20053;-81
2023/09/20 01:25:43;;;;;;;2.55;2.33;;;;;;;18.43;60.94;94113.38;4986477;28;20058;-80
2023/09/20 01:28:10;;;;;;;4.30;2.80;;;;;;;18.40;61.11;94094.47;4988529;28;20042;-81
2023/09/20 01:30:37;;;;;;;3.90;2.33;;;;;;;18.44;61.48;94116.84;4990419;28;20049;-81
2023/09/20 01:33:06;;;;;;;6.00;4.03;;;;;;;18.31;62.17;94104.66;4990565;28;20021;-78
2023/09/20 01:35:33;;;;;;;5.95;4.10;;;;;;;18.44;62.87;94124.94;4989089;28;20030;-80
2023/09/20 01:37:58;;;;;;;8.65;5.65;;;;;;;18.38;63.11;94120.97;4989927;28;20111;-76
2023/09/20 01:40:26;;;;;;;15.95;6.40;;;;;;;18.20;63.56;94098.28;4986619;28;20501;-80
2023/09/20 01:42:59;;;;;;;12.18;5.65;;;;;;;18.36;63.78;94120.53;4989330;28;20065;-80
2023/09/20 01:45:25;;;;;;;11.93;6.75;;;;;;;18.37;64.41;94133.66;4990256;28;20041;-80
2023/09/20 01:47:53;;;;;;;15.50;7.47;;;;;;;18.41;64.29;94131.03;4990024;28;20136;-80
2023/09/20 01:50:20;;;;;;;19.13;7.05;;;;;;;18.30;64.16;94113.88;4986865;28;20419;-80
2023/09/20 01:52:50;;;;;;;8.82;6.50;;;;;;;18.46;64.33;94133.44;4988703;28;20042;-81
2023/09/20 01:55:20;;;;;;;9.32;6.85;;;;;;;18.31;64.42;94115.44;4987998;28;20038;-81
2023/09/20 01:57:47;;;;;;;16.65;7.80;;;;;;;18.24;64.37;94104.50;4972464;28;20089;-80
2023/09/20 02:00:24;;;;;;;9.02;7.15;;;;;;;18.38;64.63;94120.97;4988593;28;20033;-78
2023/09/20 02:02:54;;;;;;;50.80;8.85;;;;;;;18.28;64.56;94103.47;4990654;28;20069;-79
2023/09/20 02:05:21;;;;;;;31.48;7.70;;;;;;;18.40;64.30;94118.69;4989455;28;20360;-81
2023/09/20 02:07:48;;;;;;;20.35;7.75;;;;;;;18.38;64.01;94126.38;4988247;28;20090;-80
2023/09/20 02:10:16;;;;;;;13.35;6.32;;;;;;;18.36;63.92;94115.16;4989031;28;20322;-80
2023/09/20 02:12:56;;;;;;;10.32;5.05;;;;;;;18.32;64.24;94103.53;4990635;28;20072;-80
2023/09/20 02:15:24;;;;;;;17.27;7.03;;;;;;;18.37;64.03;94120.19;4988566;28;20049;-80
2023/09/20 02:17:50;;;;;;;20.08;6.75;;;;;;;18.21;64.23;94097.16;4987309;28;20117;-80
2023/09/20 02:20:20;;;;;;;43.13;8.52;;;;;;;18.21;64.08;94100.63;4991305;28;20038;-81
2023/09/20 02:22:50;;;;;;;10.25;6.75;;;;;;;18.33;64.24;94121.25;4989543;28;20054;-81
2023/09/20 02:25:20;;;;;;;14.13;6.70;;;;;;;18.26;64.82;94108.44;4992216;28;20050;-81
2023/09/20 02:27:47;;;;;;;8.63;6.22;;;;;;;18.29;64.41;94118.47;4992217;28;20088;-80
2023/09/20 02:30:16;;;;;;;14.25;5.72;;;;;;;18.41;63.54;94128.34;4993955;28;20635;-79
2023/09/20 02:32:42;;;;;;;39.95;7.70;;;;;;;18.31;62.97;94112.75;4989361;28;20030;-79
2023/09/20 02:35:09;;;;;;;7.05;5.60;;;;;;;18.27;63.09;94114.59;4996225;28;20042;-81
2023/09/20 02:37:35;;;;;;;41.22;6.20;;;;;;;18.18;63.32;94122.09;4993731;28;20048;-80
2023/09/20 02:40:07;;;;;;;11.75;5.70;;;;;;;18.03;63.34;94100.28;4990223;28;20040;-80
2023/09/20 02:42:59;;;;;;;18.95;5.10;;;;;;;18.11;63.07;94103.88;4990494;28;20052;-80
2023/09/20 02:45:29;;;;;;;9.43;5.22;;;;;;;18.00;63.22;94108.25;4992863;28;20745;-80
2023/09/20 02:47:55;;;;;;;16.70;5.80;;;;;;;18.07;63.65;94115.72;4991921;28;20054;-78
2023/09/20 02:50:23;;;;;;;14.80;5.10;;;;;;;18.13;63.64;94138.53;4992015;28;20157;-80
2023/09/20 02:52:51;;;;;;;20.20;5.72;;;;;;;17.90;63.45;94106.88;4991042;28;20670;-80
2023/09/20 02:55:20;;;;;;;5.82;4.07;;;;;;;17.93;63.71;94111.59;4991188;28;20067;-79
2023/09/20 02:57:52;;;;;;;11.85;5.05;;;;;;;18.06;63.52;94130.28;4988080;28;20132;-79
2023/09/20 03:00:21;;;;;;;12.10;4.55;;;;;;;18.07;63.42;94140.72;4985690;28;20493;-80
2023/09/20 03:02:49;;;;;;;14.25;5.93;;;;;;;18.04;63.66;94139.50;4984029;28;20128;-80
2023/09/20 03:05:16;;;;;;;9.40;5.07;;;;;;;17.93;63.84;94122.34;4987055;28;20049;-80
2023/09/20 03:07:46;;;;;;;7.20;5.57;;;;;;;18.02;63.98;94135.59;4986395;28;20041;-80
2023/09/20 03:10:13;;;;;;;12.48;6.20;;;;;;;18.06;64.19;94138.38;4989544;28;20687;-80
2023/09/20 03:12:45;;;;;;;13.98;7.22;;;;;;;17.93;64.07;94127.75;4991546;28;20042;-80
2023/09/20 03:15:12;;;;;;;10.60;6.22;;;;;;;18.01;64.21;94132.13;4967641;28;20033;-80
2023/09/20 03:17:39;;;;;;;10.88;6.65;;;;;;;17.77;63.99;94102.75;4988760;28;20030;-80
2023/09/20 03:20:25;;;;;;;8.95;6.45;;;;;;;17.92;64.07;94141.50;4986870;28;20061;-80
2023/09/20 03:22:55;;;;;;;9.07;5.97;;;;;;;17.83;63.84;94120.19;4980254;28;20041;-80
2023/09/20 03:25:22;;;;;;;11.52;7.30;;;;;;;17.93;63.81;94130.44;4972249;28;20044;-79
2023/09/20 03:27:48;;;;;;;13.63;5.65;;;;;;;17.79;63.29;94122.00;4987691;28;20057;-79
2023/09/20 03:30:16;;;;;;;7.68;5.00;;;;;;;17.72;63.29;94132.59;4988964;28;20037;-81
2023/09/20 03:32:42;;;;;;;10.95;4.75;;;;;;;17.62;63.36;94133.13;4984328;28;20138;-79
2023/09/20 03:35:10;;;;;;;7.43;4.22;;;;;;;17.51;63.18;94114.06;4990139;28;20334;-81
2023/09/20 03:37:43;;;;;;;9.38;3.80;;;;;;;17.59;62.81;94117.72;4990243;28;20041;-80
2023/09/20 03:40:21;;;;;;;5.13;3.03;;;;;;;17.63;62.17;94129.31;4967982;28;20038;-81
2023/09/20 03:42:48;;;;;;;4.00;3.25;;;;;;;17.54;61.97;94107.22;4983777;28;20048;-81
2023/09/20 03:45:15;;;;;;;5.55;3.08;;;;;;;17.55;62.01;94117.59;4988491;28;20030;-80
2023/09/20 03:47:47;;;;;;;5.53;2.90;;;;;;;17.48;62.80;94100.53;4988359;28;20030;-79
2023/09/20 03:50:12;;;;;;;4.25;3.00;;;;;;;17.48;62.55;94106.69;4981187;28;20046;-81
2023/09/20 03:52:41;;;;;;;4.90;2.35;;;;;;;17.64;61.28;94124.72;4970403;28;20038;-80
2023/09/20 03:55:07;;;;;;;16.40;4.57;;;;;;;17.58;61.00;94116.16;4988314;28;20042;-80
2023/09/20 03:57:33;;;;;;;9.98;2.72;;;;;;;17.66;60.43;94125.94;4986139;28;20061;-78
2023/09/20 03:59:59;;;;;;;6.05;3.22;;;;;;;17.71;59.83;94128.34;4985367;28;20393;-80
2023/09/20 04:02:26;;;;;;;5.35;2.42;;;;;;;17.56;60.01;94124.56;4985190;28;20056;-80
2023/09/20 04:04:53;;;;;;;7.32;2.40;;;;;;;17.61;59.74;94136.94;4988646;28;20042;-81
2023/09/20 04:07:19;;;;;;;10.88;2.85;;;;;;;17.39;59.88;94102.63;4983915;28;20049;-80
2023/09/20 04:09:45;;;;;;;7.18;3.00;;;;;;;17.58;60.09;94137.66;4987082;28;20201;-78
2023/09/20 04:12:15;;;;;;;8.15;3.42;;;;;;;17.43;59.94;94114.25;4986074;28;20029;-79
2023/09/20 04:14:41;;;;;;;5.60;3.33;;;;;;;17.52;59.49;94133.66;4984880;28;20057;-80
2023/09/20 04:17:07;;;;;;;10.65;4.13;;;;;;;17.47;59.72;94126.66;4989923;28;24755;-80
2023/09/20 04:19:34;;;;;;;7.57;3.50;;;;;;;17.50;59.62;94125.94;4989434;28;20061;-78
2023/09/20 04:22:04;;;;;;;4.22;3.15;;;;;;;17.50;59.69;94130.56;4969611;28;20278;-78
2023/09/20 04:24:30;;;;;;;7.53;3.10;;;;;;;17.43;59.95;94122.31;4966202;28;20676;-81
2023/09/20 04:26:55;;;;;;;5.45;3.13;;;;;;;17.32;59.80;94114.00;4950701;28;20093;-80
2023/09/20 04:29:22;;;;;;;8.60;2.80;;;;;;;17.29;59.83;94113.91;4986822;28;20041;-79
2023/09/20 04:31:49;;;;;;;5.80;2.60;;;;;;;17.32;59.59;94114.00;4985389;28;20053;-80
2023/09/20 04:34:15;;;;;;;10.48;2.75;;;;;;;17.15;59.94;94104.41;4979646;28;20034;-80
2023/09/20 04:36:44;;;;;;;5.97;3.53;;;;;;;17.30;60.07;94120.88;4984051;28;20056;-80
2023/09/20 04:39:11;;;;;;;8.55;2.65;;;;;;;17.24;60.36;94116.88;4987273;28;20030;-80
2023/09/20 04:41:37;;;;;;;4.57;2.60;;;;;;;17.24;60.89;94117.66;4985500;28;20585;-80
2023/09/20 04:44:07;;;;;;;8.82;3.58;;;;;;;17.29;61.19;94127.34;4986071;28;20040;-79
2023/09/20 04:46:36;;;;;;;7.15;3.83;;;;;;;17.15;61.41;94103.63;4987525;28;20468;-80
2023/09/20 04:49:05;;;;;;;7.07;3.15;;;;;;;17.22;61.51;94108.34;4988132;28;20074;-78
2023/09/20 04:51:31;;;;;;;4.30;2.83;;;;;;;17.30;61.97;94127.03;4985976;28;20045;-80
2023/09/20 04:53:57;;;;;;;3.80;2.70;;;;;;;17.43;62.05;94135.75;4987771;28;20543;-79
2023/09/20 04:56:23;;;;;;;4.53;3.00;;;;;;;17.45;62.16;94145.03;4983374;28;20053;-79
2023/09/20 04:58:49;;;;;;;5.20;3.03;;;;;;;17.36;62.29;94116.75;4980187;28;20423;-81
2023/09/20 05:01:15;;;;;;;5.93;3.00;;;;;;;17.52;62.37;94141.72;4985765;28;20067;-80
2023/09/20 05:03:41;;;;;;;7.47;3.50;;;;;;;17.57;62.30;94149.53;4986767;28;20037;-80
2023/09/20 05:06:07;;;;;;;9.63;4.32;;;;;;;17.49;62.61;94132.47;4986241;28;20530;-80
2023/09/20 05:08:32;;;;;;;9.95;4.93;;;;;;;17.65;62.43;94153.19;4986527;28;20030;-76
2023/09/20 05:10:58;;;;;;;9.95;4.22;;;;;;;17.54;62.46;94136.81;4983705;28;20046;-80
2023/09/20 05:13:24;;;;;;;7.28;5.15;;;;;;;17.56;62.34;94137.22;4980175;28;20042;-78
2023/09/20 05:15:50;;;;;;;11.93;7.03;;;;;;;17.77;62.51;94156.53;4984131;28;20084;-79
2023/09/20 05:18:16;;;;;;;11.73;6.57;;;;;;;17.76;62.87;94160.38;4985703;28;20046;-77
2023/09/20 05:20:45;;;;;;;12.10;7.55;;;;;;;17.76;63.13;94157.66;4983678;28;20029;-78
2023/09/20 05:23:11;;;;;;;12.75;7.75;;;;;;;17.74;62.84;94151.09;4986268;28;20056;-79
2023/09/20 05:25:36;;;;;;;11.88;7.32;;;;;;;17.70;63.04;94145.59;4981801;28;20034;-78
2023/09/20 05:28:02;;;;;;;10.15;6.50;;;;;;;17.76;63.23;94160.38;4981322;28;20468;-78
2023/09/20 05:30:28;;;;;;;9.35;6.93;;;;;;;17.84;63.64;94167.47;4989548;28;20042;-79
2023/09/20 05:32:53;;;;;;;11.20;7.63;;;;;;;17.83;63.68;94165.91;4983450;28;20024;-79
2023/09/20 05:35:19;;;;;;;11.95;7.43;;;;;;;17.88;64.11;94181.78;4983528;28;20042;-79
2023/09/20 05:37:45;;;;;;;12.52;8.70;;;;;;;17.70;65.10;94147.56;4986084;28;20380;-78
2023/09/20 05:40:17;;;;;;;11.60;8.50;;;;;;;17.86;65.25;94185.94;4980332;28;20478;-78
2023/09/20 05:42:46;;;;;;;16.45;9.65;;;;;;;17.80;65.31;94171.97;4988171;28;20046;-79
2023/09/20 05:45:14;;;;;;;17.98;9.50;;;;;;;17.81;65.36;94168.16;4981034;28;20066;-78
2023/09/20 05:47:41;;;;;;;13.13;9.65;;;;;;;17.84;64.88;94178.25;4982530;28;20046;-78
2023/09/20 05:50:10;;;;;;;15.18;8.63;;;;;;;17.91;64.88;94181.09;4983170;28;22325;-79
2023/09/20 05:52:43;;;;;;;15.25;8.88;;;;;;;17.93;64.76;94186.94;4986334;28;20060;-78
2023/09/20 05:55:13;;;;;;;14.85;10.85;;;;;;;18.03;65.22;94193.69;4984728;28;20054;-78
2023/09/20 05:57:42;;;;;;;15.48;11.95;;;;;;;18.08;65.38;94198.03;4981872;28;20038;-78
2023/09/20 06:00:18;;;;;;;21.63;11.18;;;;;;;18.10;64.99;94201.91;4988190;28;20973;-79
2023/09/20 06:02:45;;;;;;;16.80;11.82;;;;;;;17.90;64.33;94176.81;4987856;28;20049;-80
2023/09/20 06:05:18;;;;;;;13.77;10.48;;;;;;;17.87;64.73;94172.16;4971084;28;20037;-79
2023/09/20 06:07:44;;;;;;;16.08;11.88;;;;;;;17.97;64.54;94182.41;4983734;28;20828;-78
2023/09/20 06:10:15;;;;;;;20.13;13.90;;;;;;;18.13;64.30;94186.97;4987717;28;20038;-78
2023/09/20 06:12:40;;;;;;;20.65;12.75;;;;;;;18.21;64.33;94191.38;4990627;28;20104;-78
2023/09/20 06:15:13;;;;;;;18.27;12.88;;;;;;;17.87;64.90;94166.00;4973851;28;20129;-77
2023/09/20 06:17:38;;;;;;;20.10;13.60;;;;;;;18.18;65.24;94200.94;4999467;28;20018;-77
2023/09/20 06:20:08;;;;;;;20.52;13.45;;;;;;;18.04;65.54;94184.47;4996582;28;20085;-78
2023/09/20 06:22:34;;;;;;;20.88;13.13;;;;;;;18.28;64.96;94202.31;4994966;28;20125;-78
2023/09/20 06:25:01;;;;;;;17.77;13.40;;;;;;;18.35;64.67;94208.63;4993181;28;20049;-78
2023/09/20 06:27:30;;;;;;;22.08;14.50;;;;;;;18.41;63.96;94212.59;4995848;28;20038;-79
2023/09/20 06:30:03;;;;;;;20.45;13.55;;;;;;;18.39;63.58;94204.09;4995805;28;20113;-77
2023/09/20 06:32:30;;;;;;;19.27;13.50;;;;;;;18.36;63.50;94199.41;4998843;28;20128;-77
2023/09/20 06:34:56;;;;;;;18.70;12.57;;;;;;;18.41;63.72;94201.03;4997350;28;20103;-78
2023/09/20 06:37:21;;;;;;;17.80;11.43;;;;;;;18.42;63.74;94197.22;4996119;28;20046;-77
2023/09/20 06:39:47;;;;;;;20.10;13.35;;;;;;;18.26;64.54;94197.28;4996109;28;20528;-78
2023/09/20 06:42:12;;;;;;;20.17;13.10;;;;;;;18.42;64.48;94202.63;4997298;28;20145;-77
2023/09/20 06:44:40;;;;;;;19.65;14.77;;;;;;;18.52;65.03;94215.53;4998820;28;20026;-78
2023/09/20 06:47:07;;;;;;;27.42;17.33;;;;;;;18.32;64.90;94197.78;5000761;28;20034;-78
2023/09/20 06:49:32;;;;;;;30.08;18.05;;;;;;;18.48;64.41;94211.19;4969054;28;20041;-79
2023/09/20 06:52:01;;;;;;;23.73;17.50;;;;;;;18.47;64.37;94210.41;4973362;28;20442;-79
2023/09/20 06:54:28;;;;;;;23.63;16.67;;;;;;;18.56;63.82;94202.91;4957864;28;20041;-78
2023/09/20 06:57:01;;;;;;;27.85;18.30;;;;;;;18.53;64.04;94217.06;4999084;28;20036;-78
2023/09/20 06:59:27;;;;;;;29.80;18.77;;;;;;;18.42;64.94;94218.78;4997100;28;20065;-77
2023/09/20 07:01:53;;;;;;;25.60;18.23;;;;;;;18.27;65.43;94206.91;4996387;28;20053;-78
2023/09/20 07:04:19;;;;;;;20.17;15.88;;;;;;;18.51;64.15;94226.66;4997464;28;20457;-77
2023/09/20 07:06:45;;;;;;;24.55;18.33;;;;;;;18.41;65.47;94214.50;4998833;28;20038;-79
2023/09/20 07:09:10;;;;;;;26.05;19.42;;;;;;;18.36;66.18;94210.19;4992989;28;20030;-78
2023/09/20 07:11:37;;;;;;;25.02;16.98;;;;;;;18.37;66.16;94200.19;4998428;28;20022;-78
2023/09/20 07:14:05;;;;;;;27.15;17.15;;;;;;;18.61;65.26;94226.09;4994772;28;20473;-78
2023/09/20 07:16:33;;;;;;;25.85;18.20;;;;;;;18.63;65.09;94213.03;4994353;28;20504;-77
2023/09/20 07:19:04;;;;;;;30.73;19.73;;;;;;;18.71;65.14;94229.03;4995473;28;20038;-78
2023/09/20 07:21:29;;;;;;;22.67;18.50;;;;;;;18.69;66.81;94233.16;4996036;28;20034;-78
2023/09/20 07:23:55;;;;;;;24.75;17.45;;;;;;;18.71;66.25;94226.34;4979014;28;20034;-78
2023/09/20 07:26:25;;;;;;;24.48;16.88;;;;;;;18.68;65.24;94205.44;4994705;28;20084;-76
2023/09/20 07:28:50;;;;;;;25.40;15.88;;;;;;;18.78;64.54;94198.75;4977284;28;20080;-79
2023/09/20 07:31:20;;;;;;;21.85;16.90;;;;;;;18.89;63.77;94215.91;4995928;28;20339;-78
2023/09/20 07:33:46;;;;;;;33.40;17.95;;;;;;;19.04;63.48;94238.53;4992167;28;20045;-79
2023/09/20 07:36:11;;;;;;;24.52;16.48;;;;;;;19.00;64.33;94226.91;4998245;28;20036;-80
2023/09/20 07:38:36;;;;;;;30.77;17.55;;;;;;;18.97;63.81;94217.59;4996024;28;20045;-79
2023/09/20 07:41:12;;;;;;;20.75;16.63;;;;;;;19.09;63.04;94241.72;4997427;28;20185;-78
2023/09/20 07:43:38;;;;;;;22.13;16.58;;;;;;;19.04;63.53;94243.91;4975650;28;20543;-79
2023/09/20 07:46:07;;;;;;;23.65;17.42;;;;;;;19.07;64.20;94248.59;4996558;28;20041;-78
2023/09/20 07:48:33;;;;;;;23.70;17.27;;;;;;;18.95;64.65;94229.88;4995114;28;20386;-77
2023/09/20 07:50:59;;;;;;;28.80;18.65;;;;;;;19.14;64.06;94243.34;4995488;28;20503;-79
2023/09/20 07:53:26;;;;;;;24.17;18.67;;;;;;;19.20;64.80;94237.31;4996483;28;20027;-77
2023/09/20 07:56:03;;;;;;;27.60;17.85;;;;;;;19.20;63.60;94226.53;4994979;28;20120;-78
2023/09/20 07:58:30;;;;;;;30.02;18.83;;;;;;;19.27;63.25;94237.44;4995080;28;20038;-78
2023/09/20 08:00:56;;;;;;;29.20;18.92;;;;;;;19.32;63.25;94236.34;4992052;28;20499;-78
2023/09/20 08:03:25;;;;;;;32.72;20.67;;;;;;;19.36;63.54;94234.50;4998360;28;20149;-77
2023/09/20 08:05:51;;;;;;;31.00;21.17;;;;;;;19.30;63.82;94235.94;4995003;28;20122;-77
2023/09/20 08:08:17;;;;;;;28.45;19.80;;;;;;;19.21;64.25;94211.13;4997547;28;20046;-77
2023/09/20 08:10:44;;;;;;;36.00;21.60;;;;;;;19.34;65.22;94231.38;4995018;28;20042;-78
2023/09/20 08:13:11;;;;;;;27.20;20.90;;;;;;;19.31;65.10;94210.53;4994784;28;20637;-78
2023/09/20 08:15:42;;;;;;;31.05;21.50;;;;;;;19.14;64.93;94227.16;4993637;28;20039;-78
2023/09/20 08:20:59;;;;;;;26.55;20.38;;;;;;;19.49;65.50;94229.75;4997548;28;20052;-78
2023/09/20 09:02:14;;;;;;;32.47;23.70;;;;;;;19.70;63.03;94222.03;4986836;28;20545;-77
2023/09/20 09:04:45;;;;;;;35.60;23.35;;;;;;;19.68;62.20;94214.28;4985757;28;20049;-79
2023/09/20 09:07:12;;;;;;;31.70;23.10;;;;;;;19.79;60.97;94208.28;4969984;28;20045;-78
2023/09/20 09:09:41;;;;;;;33.80;23.58;;;;;;;19.82;61.87;94202.16;4986491;28;20033;-78
2023/09/20 09:12:07;;;;;;;30.15;20.73;;;;;;;19.95;62.16;94206.22;4991783;28;20029;-79
2023/09/20 09:14:35;;;;;;;34.10;21.77;;;;;;;20.05;62.61;94208.28;4994705;28;20018;-78
2023/09/20 09:17:05;;;;;;;32.83;21.50;;;;;;;19.98;61.79;94205.50;4993441;28;20265;-77
2023/09/20 09:19:30;;;;;;;36.05;23.23;;;;;;;20.09;61.53;94206.44;4994604;28;20099;-79
2023/09/20 09:21:56;;;;;;;34.97;22.48;;;;;;;20.09;61.99;94201.81;4993779;28;20560;-79
2023/09/20 09:24:23;;;;;;;30.45;20.67;;;;;;;20.18;61.19;94207.00;4976303;28;20038;-79
2023/09/20 09:26:49;;;;;;;29.95;19.65;;;;;;;20.17;61.28;94181.13;4994884;28;20211;-79
2023/09/20 09:29:18;;;;;;;33.92;21.02;;;;;;;20.19;60.26;94184.22;4993926;28;20140;-78
2023/09/20 09:31:49;;;;;;;27.10;18.42;;;;;;;20.30;59.96;94203.28;4992422;28;20083;-77
2023/09/20 09:34:18;;;;;;;29.38;20.15;;;;;;;20.31;59.63;94194.81;4995222;28;20041;-79
2023/09/20 09:36:44;;;;;;;25.92;18.38;;;;;;;20.09;60.39;94190.25;4996368;28;20073;-78
2023/09/20 09:39:09;;;;;;;39.55;21.17;;;;;;;20.17;60.64;94190.00;4976111;28;20118;-77
2023/09/20 09:41:47;;;;;;;33.38;20.17;;;;;;;20.25;61.10;94193.56;4976509;28;20051;-78
2023/09/20 09:44:14;;;;;;;29.27;20.48;;;;;;;20.34;59.52;94207.59;4985678;28;20045;-78
2023/09/20 09:46:42;;;;;;;29.63;20.48;;;;;;;20.10;59.73;94176.38;4976155;28;20064;-79
2023/09/20 09:49:18;;;;;;;29.40;18.35;;;;;;;20.41;59.21;94196.09;4993431;28;20053;-78
2023/09/20 09:51:51;;;;;;;26.13;18.67;;;;;;;20.53;59.51;94188.53;4996452;28;20034;-78
2023/09/20 09:54:18;;;;;;;26.63;19.50;;;;;;;20.42;59.96;94176.84;4989914;28;20049;-78
2023/09/20 09:56:44;;;;;;;29.73;20.17;;;;;;;20.46;59.70;94161.44;4994182;28;20030;-77
2023/09/20 09:59:10;;;;;;;29.67;19.25;;;;;;;20.69;59.62;94177.56;4974208;28;20049;-79
2023/09/20 10:01:37;;;;;;;25.95;17.17;;;;;;;20.84;57.98;94175.78;4991076;28;20067;-78
2023/09/20 10:04:17;;;;;;;24.58;16.90;;;;;;;20.87;58.25;94175.09;4978469;28;20030;-78
2023/09/20 10:07:10;;;;;;;23.35;17.77;;;;;;;20.94;58.44;94169.75;4991696;28;20038;-79
2023/09/20 10:09:39;;;;;;;22.73;14.95;;;;;;;20.92;57.04;94166.66;4976294;28;20084;-77
2023/09/20 10:12:05;;;;;;;24.95;15.95;;;;;;;21.03;55.79;94178.34;4993567;28;20030;-77
2023/09/20 10:14:31;;;;;;;19.15;13.07;;;;;;;21.12;56.76;94183.50;4993701;28;20529;-78
2023/09/20 10:16:56;;;;;;;22.10;14.07;;;;;;;20.99;56.33;94167.50;4995537;28;20757;-78
2023/09/20 10:19:23;;;;;;;20.33;14.40;;;;;;;21.24;56.97;94177.81;4992356;28;20033;-79
2023/09/20 10:22:10;;;;;;;20.83;13.98;;;;;;;21.29;56.06;94172.06;4991095;28;20497;-79
2023/09/20 10:24:50;;;;;;;15.30;11.80;;;;;;;21.28;55.84;94163.16;4995627;28;20048;-79
2023/09/20 10:27:23;;;;;;;25.27;14.32;;;;;;;21.04;56.28;94169.09;4994064;28;26290;-79
2023/09/20 10:30:10;;;;;;;22.73;15.00;;;;;;;21.19;56.10;94164.63;4984074;28;20781;-78
2023/09/20 10:32:48;;;;;;;14.77;11.35;;;;;;;21.31;54.73;94164.34;4994030;28;20050;-79
2023/09/20 10:35:19;;;;;;;14.63;10.30;;;;;;;21.41;55.44;94156.31;4993631;28;20546;-81
2023/09/20 10:38:11;;;;;;;15.23;10.73;;;;;;;21.55;54.23;94160.34;4995020;28;20571;-81
2023/09/20 10:40:45;;;;;;;13.65;9.65;;;;;;;21.55;54.80;94150.31;4992204;28;20599;-79
2023/09/20 10:43:34;;;;;;;13.20;9.45;;;;;;;21.58;54.64;94154.16;4994962;28;20053;-79
2023/09/20 10:46:00;;;;;;;13.77;9.07;;;;;;;21.33;55.07;94121.47;4988800;28;20042;-80
2023/09/20 10:48:28;;;;;;;17.55;10.80;;;;;;;21.41;56.05;94129.25;4995503;28;20616;-79
2023/09/20 10:50:58;;;;;;;11.25;9.45;;;;;;;21.64;54.88;94131.03;4997049;28;20109;-80
2023/09/20 10:53:45;;;;;;;17.52;10.15;;;;;;;21.73;54.75;94126.06;4998296;28;20073;-80
2023/09/20 10:56:43;;;;;;;17.42;11.10;;;;;;;21.80;54.40;94124.19;4993247;28;20034;-80
2023/09/20 10:59:14;;;;;;;19.58;10.27;;;;;;;21.69;53.99;94100.91;4978183;28;20964;-80
2023/09/20 11:01:39;;;;;;;11.88;8.68;;;;;;;21.86;53.67;94106.44;4977142;28;20593;-80
2023/09/20 11:04:06;;;;;;;15.25;9.18;;;;;;;21.85;54.67;94099.44;4985367;28;20052;-79
2023/09/20 11:06:32;;;;;;;12.63;7.88;;;;;;;22.05;53.40;94113.50;4980297;28;20037;-79
2023/09/20 11:08:59;;;;;;;12.55;7.22;;;;;;;22.18;52.87;94111.25;4995681;28;20041;-79
2023/09/20 11:11:28;;;;;;;9.55;7.28;;;;;;;22.12;50.76;94104.66;4998173;28;20025;-79
2023/09/20 11:13:54;;;;;;;14.15;7.28;;;;;;;22.10;50.11;94088.75;4993449;28;20030;-80
2023/09/20 11:16:19;;;;;;;10.32;6.70;;;;;;;22.18;50.93;94089.59;4997828;28;20042;-78
2023/09/20 11:18:47;;;;;;;8.85;7.13;;;;;;;22.22;51.85;94091.19;4994989;28;20494;-79
2023/09/20 11:21:14;;;;;;;11.77;6.78;;;;;;;22.37;52.34;94096.66;4997552;28;20046;-79
2023/09/20 11:23:39;;;;;;;10.07;5.93;;;;;;;22.37;52.37;94086.59;4994903;28;20117;-77
2023/09/20 11:26:05;;;;;;;8.77;6.72;;;;;;;22.39;51.29;94088.94;4970172;28;20997;-78
2023/09/20 11:28:32;;;;;;;12.00;6.05;;;;;;;22.43;51.08;94082.38;4986176;28;20046;-77
2023/09/20 11:30:58;;;;;;;8.82;6.22;;;;;;;22.55;52.11;94092.09;4987815;28;20591;-77
2023/09/20 11:33:27;;;;;;;10.55;6.38;;;;;;;22.64;49.73;94092.50;4988207;28;20043;-78
2023/09/20 11:35:53;;;;;;;9.93;5.68;;;;;;;22.70;52.21;94093.69;4987609;28;20602;-77
2023/09/20 11:38:21;;;;;;;8.05;4.30;;;;;;;22.60;48.64;94073.53;4988429;28;20736;-78
2023/09/20 11:40:47;;;;;;;7.18;4.20;;;;;;;22.67;46.23;94080.91;4986433;28;20280;-78
2023/09/20 11:43:20;;;;;;;9.07;4.30;;;;;;;22.71;45.24;94084.41;4967525;28;20430;-78
2023/09/20 11:45:47;;;;;;;8.20;4.72;;;;;;;22.70;46.66;94082.84;4981352;28;20091;-77
2023/09/20 11:48:13;;;;;;;6.60;4.28;;;;;;;22.64;46.28;94062.69;4978546;28;20070;-78
2023/09/20 11:50:45;;;;;;;17.88;5.97;;;;;;;22.50;47.25;94070.78;4990449;28;20109;-78
2023/09/20 11:53:15;;;;;;;11.32;5.78;;;;;;;22.62;49.34;94048.75;4982768;28;20048;-79
2023/09/20 11:55:43;;;;;;;7.75;4.95;;;;;;;22.75;47.45;94074.34;4969411;28;20034;-77
2023/09/20 11:58:10;;;;;;;8.85;3.83;;;;;;;22.78;46.36;94051.88;4993049;28;20058;-79
2023/09/20 12:00:36;;;;;;;12.70;4.00;;;;;;;22.93;46.35;94061.63;4982250;28;20052;-77
2023/09/20 12:03:02;;;;;;;9.30;4.78;;;;;;;22.91;46.01;94061.25;4990976;28;20046;-79
2023/09/20 12:05:28;;;;;;;6.93;4.05;;;;;;;23.04;45.13;94062.41;4974630;28;20042;-78
2023/09/20 12:07:59;;;;;;;10.15;4.10;;;;;;;23.10;45.16;94058.16;4976140;28;20100;-78
2023/09/20 12:10:29;;;;;;;10.00;4.63;;;;;;;23.21;45.24;94055.47;4971363;28;20133;-78